createdAt,value
2017-10-11T00:00:59.289Z,95.12
2017-10-11T00:01:59.155Z,94.74
2017-10-11T00:04:00.135Z,94.74
2017-10-11T00:04:52.488Z,94.84
2017-10-11T00:06:53.551Z,95.22
2017-10-11T00:07:53.607Z,94.79
2017-10-11T00:09:49.010Z,95.51
2017-10-11T00:10:40.371Z,95.98
2017-10-11T00:12:43.404Z,96.22
2017-10-11T00:13:34.788Z,96.75
2017-10-11T00:15:38.893Z,96.17
2017-10-11T00:16:36.904Z,96.08
2017-10-11T00:18:30.226Z,95.41
2017-10-11T00:19:22.567Z,95.51
2017-10-11T00:21:23.790Z,96.94
2017-10-11T00:22:16.095Z,97.61
2017-10-11T00:24:18.305Z,97.61
2017-10-11T00:25:10.550Z,97.51
2017-10-11T00:27:11.608Z,97.13
2017-10-11T00:28:03.928Z,97.13
2017-10-11T00:30:06.149Z,97.51
2017-10-11T00:30:57.428Z,97.89
2017-10-11T00:32:59.526Z,96.84
2017-10-11T00:33:59.429Z,97.22
2017-10-11T00:35:52.915Z,96.17
2017-10-11T00:36:44.179Z,97.32
2017-10-11T00:38:47.229Z,95.98
2017-10-11T00:39:38.593Z,95.41
2017-10-11T00:41:41.639Z,95.51
2017-10-11T00:42:33.809Z,95.79
2017-10-11T00:44:34.950Z,97.13
2017-10-11T00:45:27.281Z,96.36
2017-10-11T00:47:29.335Z,96.17
2017-10-11T00:48:20.616Z,95.32
2017-10-11T00:50:21.723Z,95.12
2017-10-11T00:51:22.728Z,96.08
2017-10-11T00:53:08.601Z,97.22
2017-10-11T00:54:17.148Z,96.08
2017-10-11T00:56:01.989Z,96.36
2017-10-11T00:57:09.511Z,96.56
2017-10-11T00:59:02.965Z,95.79
2017-10-11T00:59:55.277Z,95.89
2017-10-11T01:01:56.385Z,95.98
2017-10-11T01:02:48.670Z,95.98
2017-10-11T01:04:50.673Z,96.46
2017-10-11T01:05:42.117Z,95.89
2017-10-11T01:07:44.146Z,95.22
2017-10-11T01:08:36.434Z,95.41
2017-10-11T01:10:37.553Z,95.41
2017-10-11T01:11:29.833Z,96.17
2017-10-11T01:13:31.976Z,96.36
2017-10-11T01:14:31.891Z,97.32
2017-10-11T01:16:24.331Z,95.98
2017-10-11T01:17:16.823Z,96.17
2017-10-11T01:19:18.779Z,96.32
2017-10-11T01:20:20.769Z,96.03
2017-10-11T01:22:12.264Z,96.80
2017-10-11T01:23:13.228Z,96.94
2017-10-11T01:25:06.600Z,97.08
2017-10-11T01:26:07.648Z,96.41
2017-10-11T01:28:01.113Z,96.98
2017-10-11T01:28:53.320Z,96.80
2017-10-11T01:30:56.439Z,97.08
2017-10-11T01:31:47.704Z,97.08
2017-10-11T01:33:48.892Z,96.70
2017-10-11T01:34:41.282Z,97.17
2017-10-11T01:36:42.302Z,97.46
2017-10-11T01:37:34.667Z,97.27
2017-10-11T01:39:36.737Z,97.65
2017-10-11T01:40:36.871Z,97.94
2017-10-11T01:42:31.099Z,98.03
2017-10-11T01:43:23.343Z,97.46
2017-10-11T01:45:16.973Z,98.22
2017-10-11T01:46:16.742Z,98.27
2017-10-11T01:48:17.918Z,98.46
2017-10-11T01:49:10.174Z,97.99
2017-10-11T01:51:11.286Z,98.65
2017-10-11T01:52:12.192Z,98.55
2017-10-11T01:54:04.875Z,98.65
2017-10-11T01:54:57.138Z,99.22
2017-10-11T01:57:00.151Z,98.65
2017-10-11T01:57:51.382Z,98.74
2017-10-11T01:59:55.362Z,98.46
2017-10-11T02:00:54.515Z,98.65
2017-10-11T02:02:46.914Z,98.18
2017-10-11T02:03:48.826Z,97.94
2017-10-11T02:05:41.429Z,98.79
2017-10-11T02:06:42.208Z,98.99
2017-10-11T02:08:35.799Z,98.89
2017-10-11T02:09:27.033Z,97.65
2017-10-11T02:11:28.084Z,97.94
2017-10-11T02:12:28.054Z,98.41
2017-10-11T02:14:21.448Z,98.51
2017-10-11T02:15:21.540Z,98.89
2017-10-11T02:17:16.900Z,98.32
2017-10-11T02:18:08.289Z,98.60
2017-10-11T02:20:10.308Z,98.60
2017-10-11T02:21:09.390Z,98.94
2017-10-11T02:23:03.786Z,98.60
2017-10-11T02:23:55.030Z,98.89
2017-10-11T02:25:56.162Z,98.79
2017-10-11T02:26:57.121Z,98.22
2017-10-11T02:28:41.952Z,98.32
2017-10-11T02:29:41.795Z,97.84
2017-10-11T02:31:43.958Z,96.98
2017-10-11T02:32:36.221Z,97.46
2017-10-11T02:34:38.345Z,97.46
2017-10-11T02:35:30.691Z,96.89
2017-10-11T02:37:31.929Z,96.51
2017-10-11T02:38:24.197Z,96.80
2017-10-11T02:40:25.248Z,96.51
2017-10-11T02:41:17.650Z,96.41
2017-10-11T02:43:19.608Z,96.41
2017-10-11T02:44:20.503Z,97.08
2017-10-11T02:46:06.429Z,96.60
2017-10-11T02:47:06.283Z,96.60
2017-10-11T02:49:01.752Z,96.98
2017-10-11T02:50:09.512Z,97.46
2017-10-11T02:52:03.876Z,97.84
2017-10-11T02:52:56.102Z,97.46
2017-10-11T02:54:59.174Z,97.94
2017-10-11T02:55:59.303Z,96.89
2017-10-11T02:57:53.628Z,97.27
2017-10-11T02:58:44.997Z,97.94
2017-10-11T03:00:47.048Z,97.46
2017-10-11T03:01:38.388Z,98.22
2017-10-11T03:03:39.445Z,98.41
2017-10-11T03:04:39.541Z,97.94
2017-10-11T03:06:34.103Z,98.70
2017-10-11T03:07:26.383Z,98.03
2017-10-11T03:09:27.266Z,98.41
2017-10-11T03:10:27.195Z,97.94
2017-10-11T03:12:21.899Z,98.22
2017-10-11T03:13:14.121Z,98.60
2017-10-11T03:15:15.176Z,97.75
2017-10-11T03:16:07.495Z,97.46
2017-10-11T03:18:09.472Z,97.27
2017-10-11T03:19:09.518Z,97.36
2017-10-11T03:21:03.023Z,97.46
2017-10-11T03:21:55.362Z,97.27
2017-10-11T03:23:58.325Z,97.27
2017-10-11T03:24:49.758Z,97.08
2017-10-11T03:26:51.880Z,97.08
2017-10-11T03:27:44.060Z,97.08
2017-10-11T03:29:45.196Z,96.89
2017-10-11T03:30:37.428Z,96.41
2017-10-11T03:32:39.547Z,96.41
2017-10-11T03:33:30.848Z,98.22
2017-10-11T03:35:24.261Z,98.41
2017-10-11T03:36:24.277Z,98.41
2017-10-11T03:38:27.528Z,98.70
2017-10-11T03:39:18.732Z,98.32
2017-10-11T03:41:20.794Z,97.84
2017-10-11T03:42:21.842Z,97.08
2017-10-11T03:44:15.294Z,96.51
2017-10-11T03:45:15.192Z,96.51
2017-10-11T03:47:09.497Z,96.51
2017-10-11T03:48:00.870Z,96.51
2017-10-11T03:49:54.363Z,96.70
2017-10-11T03:50:54.297Z,96.32
2017-10-11T03:52:56.392Z,96.22
2017-10-11T03:53:47.718Z,96.60
2017-10-11T03:55:48.849Z,96.03
2017-10-11T03:56:41.133Z,96.51
2017-10-11T03:58:42.078Z,96.32
2017-10-11T03:59:34.483Z,96.22
2017-10-11T04:01:35.703Z,96.32
2017-10-11T04:02:27.911Z,96.32
2017-10-11T04:04:29.093Z,96.60
2017-10-11T04:05:30.144Z,97.17
2017-10-11T04:07:23.370Z,96.70
2017-10-11T04:08:15.823Z,96.32
2017-10-11T04:10:17.797Z,97.17
2017-10-11T04:11:09.217Z,96.51
2017-10-11T04:13:10.132Z,96.41
2017-10-11T04:14:02.507Z,96.51
2017-10-11T04:16:03.549Z,96.89
2017-10-11T04:16:55.915Z,97.46
2017-10-11T04:18:59.055Z,98.22
2017-10-11T04:19:51.316Z,97.65
2017-10-11T04:21:54.511Z,97.46
2017-10-11T04:22:52.593Z,98.03
2017-10-11T04:24:47.944Z,97.75
2017-10-11T04:25:46.841Z,97.84
2017-10-11T04:27:40.176Z,98.51
2017-10-11T04:28:32.570Z,97.79
2017-10-11T04:30:33.641Z,97.41
2017-10-11T04:31:26.001Z,97.41
2017-10-11T04:33:26.984Z,97.41
2017-10-11T04:34:19.417Z,97.22
2017-10-11T04:36:12.781Z,97.79
2017-10-11T04:37:12.773Z,98.27
2017-10-11T04:39:13.940Z,96.84
2017-10-11T04:40:06.245Z,97.60
2017-10-11T04:41:59.582Z,97.89
2017-10-11T04:42:59.588Z,97.22
2017-10-11T04:45:00.741Z,97.03
2017-10-11T04:45:53.047Z,97.31
2017-10-11T04:47:54.056Z,97.84
2017-10-11T04:48:46.353Z,98.41
2017-10-11T04:50:49.546Z,97.75
2017-10-11T04:51:40.799Z,98.51
2017-10-11T04:53:44.165Z,98.51
2017-10-11T04:54:36.331Z,97.94
2017-10-11T04:56:32.740Z,98.60
2017-10-11T04:57:32.652Z,98.51
2017-10-11T04:59:34.789Z,97.17
2017-10-11T05:00:27.122Z,97.65
2017-10-11T05:02:29.136Z,98.13
2017-10-11T05:03:20.551Z,97.17
2017-10-11T05:05:13.842Z,98.32
2017-10-11T05:06:13.920Z,98.70
2017-10-11T05:08:07.302Z,97.94
2017-10-11T05:09:07.301Z,97.94
2017-10-11T05:11:08.461Z,97.46
2017-10-11T05:12:00.661Z,97.36
2017-10-11T05:14:01.740Z,96.98
2017-10-11T05:14:54.153Z,96.51
2017-10-11T05:16:55.228Z,97.75
2017-10-11T05:17:47.560Z,97.84
2017-10-11T05:19:48.473Z,97.94
2017-10-11T05:20:40.926Z,97.36
2017-10-11T05:22:41.918Z,97.08
2017-10-11T05:23:34.273Z,95.94
2017-10-11T05:25:27.635Z,96.12
2017-10-11T05:26:27.650Z,96.32
2017-10-11T05:28:21.186Z,95.94
2017-10-11T05:29:21.093Z,96.12
2017-10-11T05:31:14.471Z,95.70
2017-10-11T05:32:14.470Z,96.22
2017-10-11T05:34:15.633Z,95.94
2017-10-11T05:35:07.901Z,95.70
2017-10-11T05:37:09.935Z,95.89
2017-10-11T05:38:01.395Z,95.89
2017-10-11T05:40:02.425Z,96.08
2017-10-11T05:40:54.745Z,95.60
2017-10-11T05:42:55.762Z,95.70
2017-10-11T05:43:55.790Z,95.79
2017-10-11T05:45:49.104Z,95.70
2017-10-11T05:46:41.461Z,95.79
2017-10-11T05:48:43.602Z,96.55
2017-10-11T05:49:35.923Z,95.98
2017-10-11T05:51:37.003Z,96.36
2017-10-11T05:52:37.013Z,96.27
2017-10-11T05:54:22.799Z,96.55
2017-10-11T05:55:22.717Z,96.36
2017-10-11T05:57:16.208Z,96.55
2017-10-11T05:58:16.116Z,96.46
2017-10-11T06:00:18.346Z,96.84
2017-10-11T06:01:10.770Z,96.65
2017-10-11T06:03:04.112Z,97.51
2017-10-11T06:04:04.086Z,97.41
2017-10-11T06:05:57.560Z,97.41
2017-10-11T06:06:57.488Z,97.51
2017-10-11T06:08:59.541Z,97.89
2017-10-11T06:09:50.919Z,97.60
2017-10-11T06:11:51.959Z,97.74
2017-10-11T06:12:44.437Z,97.65
2017-10-11T06:14:45.432Z,97.79
2017-10-11T06:15:37.756Z,97.99
2017-10-11T06:17:38.771Z,98.46
2017-10-11T06:18:31.205Z,98.50
2017-10-11T06:20:32.410Z,98.36
2017-10-11T06:21:24.511Z,98.41
2017-10-11T06:23:18.874Z,98.60
2017-10-11T06:24:18.922Z,98.98
2017-10-11T06:26:20.039Z,98.41
2017-10-11T06:27:12.400Z,98.13
2017-10-11T06:29:14.582Z,98.32
2017-10-11T06:30:09.123Z,98.69
2017-10-11T06:32:06.914Z,98.60
2017-10-11T06:32:59.357Z,98.41
2017-10-11T06:35:00.384Z,98.18
2017-10-11T06:35:52.775Z,97.60
2017-10-11T06:37:54.846Z,97.99
2017-10-11T06:38:46.118Z,98.18
2017-10-11T06:40:39.525Z,98.08
2017-10-11T06:41:39.586Z,97.03
2017-10-11T06:43:41.219Z,96.94
2017-10-11T06:44:32.975Z,96.94
2017-10-11T06:46:33.953Z,96.27
2017-10-11T06:49:27.465Z,96.36
2017-10-11T06:50:20.925Z,96.17
2017-10-11T06:52:20.742Z,97.22
2017-10-11T06:53:13.175Z,96.27
2017-10-11T06:58:08.687Z,95.79
2017-10-11T06:59:01.072Z,96.27
2017-10-11T07:01:01.944Z,95.94
2017-10-11T07:01:54.407Z,95.56
2017-10-11T07:03:55.446Z,95.65
2017-10-11T07:04:47.767Z,94.70
2017-10-11T07:06:55.005Z,94.41
2017-10-11T07:07:46.332Z,94.70
2017-10-11T07:09:39.595Z,94.08
2017-10-11T07:10:39.660Z,93.51
2017-10-11T07:12:33.123Z,92.65
2017-10-11T07:13:33.044Z,92.65
2017-10-11T07:15:26.489Z,92.65
2017-10-11T07:16:26.436Z,92.46
2017-10-11T07:18:19.810Z,91.98
2017-10-11T07:19:19.812Z,92.08
2017-10-11T07:21:14.173Z,92.32
2017-10-11T07:22:14.244Z,91.74
2017-10-11T07:24:08.823Z,91.55
2017-10-11T07:25:08.738Z,91.36
2017-10-11T07:27:02.174Z,91.36
2017-10-11T07:28:02.201Z,90.88
2017-10-11T07:29:55.473Z,90.98
2017-10-11T07:30:55.430Z,91.07
2017-10-11T07:32:48.820Z,91.36
2017-10-11T07:33:48.812Z,90.69
2017-10-11T07:35:42.218Z,91.83
2017-10-11T07:36:42.217Z,90.98
2017-10-11T07:38:35.679Z,90.83
2017-10-11T07:39:35.662Z,90.83
2017-10-11T07:41:29.023Z,90.64
2017-10-11T07:42:29.043Z,90.17
2017-10-11T07:44:22.441Z,90.07
2017-10-11T07:45:22.396Z,89.59
2017-10-11T07:47:16.956Z,89.59
2017-10-11T07:48:16.778Z,89.97
2017-10-11T07:50:10.263Z,91.41
2017-10-11T07:51:10.180Z,90.64
2017-10-11T07:53:04.586Z,91.41
2017-10-11T07:54:04.751Z,91.60
2017-10-11T07:55:59.130Z,91.50
2017-10-11T07:56:59.099Z,91.60
2017-10-11T07:58:52.466Z,91.21
2017-10-11T07:59:52.433Z,91.41
2017-10-11T08:01:47.910Z,90.83
2017-10-11T08:02:47.951Z,90.45
2017-10-11T08:04:41.349Z,91.21
2017-10-11T08:05:41.386Z,91.02
2017-10-11T08:07:34.728Z,89.06
2017-10-11T08:08:34.658Z,90.02
2017-10-11T08:10:29.116Z,90.40
2017-10-11T08:11:29.217Z,90.21
2017-10-11T08:13:23.514Z,90.40
2017-10-11T08:14:23.532Z,89.83
2017-10-11T08:16:26.569Z,89.25
2017-10-11T08:17:17.995Z,88.68
2017-10-11T08:19:19.974Z,88.49
2017-10-11T08:20:12.313Z,89.16
2017-10-11T08:22:05.658Z,87.82
2017-10-11T08:23:05.716Z,88.92
2017-10-11T08:24:59.085Z,88.20
2017-10-11T08:25:59.121Z,87.87
2017-10-11T08:27:53.435Z,87.68
2017-10-11T08:29:03.289Z,87.68
2017-10-11T08:30:46.886Z,86.91
2017-10-11T08:31:46.926Z,87.39
2017-10-11T08:33:40.207Z,87.01
2017-10-11T08:34:40.284Z,87.29
2017-10-11T08:36:34.637Z,87.68
2017-10-11T08:37:34.628Z,87.77
2017-10-11T08:39:28.025Z,87.20
2017-10-11T08:40:28.035Z,87.10
2017-10-11T08:42:21.467Z,86.15
2017-10-11T08:43:21.447Z,86.82
2017-10-11T08:45:14.895Z,86.96
2017-10-11T08:46:14.844Z,87.91
2017-10-11T08:48:08.235Z,86.57
2017-10-11T08:49:08.247Z,86.53
2017-10-11T08:51:02.177Z,87.15
2017-10-11T08:52:10.978Z,87.34
2017-10-11T08:53:55.383Z,88.01
2017-10-11T08:55:03.925Z,86.19
2017-10-11T08:56:58.403Z,87.43
2017-10-11T08:57:58.522Z,88.20
2017-10-11T08:59:44.165Z,87.34
2017-10-11T09:00:51.962Z,86.47
2017-10-11T09:02:38.605Z,87.15
2017-10-11T09:03:38.443Z,87.91
2017-10-11T09:05:40.411Z,86.96
2017-10-11T09:06:40.508Z,85.85
2017-10-11T09:08:36.305Z,85.28
2017-10-11T09:09:35.817Z,85.57
2017-10-11T09:11:32.018Z,85.57
2017-10-11T09:12:33.359Z,85.57
2017-10-11T09:14:17.804Z,86.33
2017-10-11T09:15:16.605Z,85.28
2017-10-11T09:17:20.654Z,85.47
2017-10-11T09:18:12.758Z,85.18
2017-10-11T09:20:16.715Z,86.52
2017-10-11T09:21:08.344Z,86.33
2017-10-11T09:23:09.248Z,84.52
2017-10-11T09:24:01.616Z,85.57
2017-10-11T09:26:03.192Z,87.43
2017-10-11T09:26:54.928Z,86.37
2017-10-11T09:28:56.205Z,84.65
2017-10-11T09:29:48.383Z,84.08
2017-10-11T09:31:52.634Z,84.08
2017-10-11T09:32:51.418Z,84.17
2017-10-11T09:34:44.864Z,84.65
2017-10-11T09:35:36.200Z,85.17
2017-10-11T09:37:29.568Z,83.06
2017-10-11T09:38:29.643Z,83.06
2017-10-11T09:40:30.598Z,82.11
2017-10-11T09:41:22.968Z,82.20
2017-10-11T09:43:25.304Z,80.04
2017-10-11T09:44:25.043Z,80.71
2017-10-11T09:46:18.555Z,82.53
2017-10-11T09:47:10.642Z,81.38
2017-10-11T09:49:04.093Z,80.94
2017-10-11T09:50:04.066Z,79.55
2017-10-11T09:51:57.493Z,74.87
2017-10-11T09:52:57.468Z,71.33
2017-10-11T09:54:50.850Z,65.46
2017-10-11T09:55:50.822Z,64.25
2017-10-11T09:57:45.206Z,61.16
2017-10-11T09:58:45.268Z,58.75
2017-10-11T10:00:39.700Z,55.47
2017-10-11T10:01:38.713Z,54.22
2017-10-11T10:03:32.076Z,51.88
2017-10-11T10:04:32.091Z,52.05
2017-10-11T10:06:26.586Z,50.60
2017-10-11T10:07:26.500Z,50.02
2017-10-11T10:09:20.889Z,48.39
2017-10-11T10:10:20.952Z,48.03
2017-10-11T10:12:14.334Z,48.25
2017-10-11T10:13:14.344Z,47.20
2017-10-11T10:15:17.807Z,46.60
2017-10-11T10:16:15.344Z,46.41
2017-10-11T10:18:02.377Z,45.22
2017-10-11T10:19:02.441Z,45.45
2017-10-11T10:21:04.445Z,47.16
2017-10-11T10:21:56.847Z,47.55
2017-10-11T10:23:51.249Z,43.62
2017-10-11T10:24:59.767Z,45.32
2017-10-11T10:26:45.528Z,44.93
2017-10-11T10:27:45.570Z,44.01
2017-10-11T10:29:39.834Z,43.04
2017-10-11T10:30:39.861Z,42.80
2017-10-11T10:32:33.331Z,44.61
2017-10-11T10:33:33.361Z,44.24
2017-10-11T10:35:26.797Z,42.11
2017-10-11T10:36:26.786Z,41.53
2017-10-11T10:38:20.232Z,40.36
2017-10-11T10:39:20.260Z,40.66
2017-10-11T10:41:13.722Z,40.89
2017-10-11T10:42:13.752Z,39.69
2017-10-11T10:44:07.188Z,40.77
2017-10-11T10:45:07.129Z,40.50
2017-10-11T10:47:01.744Z,39.36
2017-10-11T10:48:01.579Z,40.06
2017-10-11T10:49:55.114Z,36.30
2017-10-11T10:50:55.104Z,36.26
2017-10-11T10:52:49.435Z,35.81
2017-10-11T10:53:49.451Z,35.27
2017-10-11T10:55:43.099Z,38.07
2017-10-11T10:56:43.856Z,36.95
2017-10-11T10:58:36.467Z,37.24
2017-10-11T10:59:44.031Z,38.56
2017-10-11T11:01:29.756Z,37.70
2017-10-11T11:02:29.827Z,37.90
2017-10-11T11:04:23.316Z,38.07
2017-10-11T11:05:23.291Z,40.66
2017-10-11T11:07:16.703Z,39.82
2017-10-11T11:08:16.730Z,37.24
2017-10-11T11:10:10.144Z,36.24
2017-10-11T11:11:10.158Z,36.83
2017-10-11T11:13:03.537Z,39.06
2017-10-11T11:14:03.593Z,40.42
2017-10-11T11:15:56.999Z,43.15
2017-10-11T11:16:57.068Z,44.94
2017-10-11T11:18:50.439Z,46.58
2017-10-11T11:19:50.480Z,46.39
2017-10-11T11:21:44.039Z,46.61
2017-10-11T11:22:43.926Z,45.74
2017-10-11T11:24:37.370Z,47.67
2017-10-11T11:25:37.366Z,46.32
2017-10-11T11:27:30.831Z,46.12
2017-10-11T11:28:30.966Z,46.92
2017-10-11T11:30:24.215Z,48.35
2017-10-11T11:31:24.241Z,48.18
2017-10-11T11:33:17.683Z,47.36
2017-10-11T11:34:17.712Z,48.42
2017-10-11T11:36:11.104Z,46.37
2017-10-11T11:37:11.152Z,46.75
2017-10-11T11:39:04.589Z,47.33
2017-10-11T11:40:04.577Z,48.59
2017-10-11T11:41:58.032Z,47.26
2017-10-11T11:42:58.014Z,47.50
2017-10-11T11:44:51.410Z,51.51
2017-10-11T11:45:51.437Z,53.34
2017-10-11T11:47:44.852Z,51.75
2017-10-11T11:48:44.849Z,49.80
2017-10-11T11:50:38.285Z,50.31
2017-10-11T11:51:38.297Z,49.90
2017-10-11T11:53:31.738Z,49.80
2017-10-11T11:54:32.040Z,49.73
2017-10-11T11:56:26.502Z,49.58
2017-10-11T11:57:25.179Z,48.97
2017-10-11T11:59:18.566Z,48.49
2017-10-11T12:00:18.583Z,49.17
2017-10-11T12:02:11.971Z,51.01
2017-10-11T12:03:12.042Z,51.97
2017-10-11T12:05:05.434Z,50.28
2017-10-11T12:06:05.420Z,51.05
2017-10-11T12:07:58.822Z,52.69
2017-10-11T12:08:58.855Z,53.27
2017-10-11T12:10:52.525Z,51.34
2017-10-11T12:11:52.545Z,50.84
2017-10-11T12:13:45.813Z,52.37
2017-10-11T12:14:46.095Z,52.59
2017-10-11T12:16:40.422Z,51.46
2017-10-11T12:17:40.275Z,52.62
2017-10-11T12:19:33.761Z,50.98
2017-10-11T12:20:42.830Z,51.17
2017-10-11T12:22:29.950Z,49.05
2017-10-11T12:23:30.210Z,50.79
2017-10-11T12:25:23.980Z,48.52
2017-10-11T12:26:31.434Z,47.99
2017-10-11T12:28:18.736Z,47.11
2017-10-11T12:29:28.794Z,46.53
2017-10-11T12:31:12.346Z,45.81
2017-10-11T12:32:19.799Z,48.18
2017-10-11T12:34:05.257Z,50.43
2017-10-11T12:35:16.052Z,50.62
2017-10-11T12:37:00.645Z,48.37
2017-10-11T12:39:57.252Z,50.32
2017-10-11T12:40:55.785Z,53.61
2017-10-11T12:42:50.913Z,53.22
2017-10-11T12:43:57.046Z,54.28
2017-10-11T12:45:51.117Z,54.80
2017-10-11T12:48:07.920Z,56.44
2017-10-11T12:49:07.672Z,56.63
2017-10-11T12:51:02.921Z,59.43
2017-10-11T12:53:56.808Z,57.76
2017-10-11T12:55:04.839Z,58.85
2017-10-11T12:56:51.595Z,57.76
2017-10-11T12:57:59.442Z,59.52
2017-10-11T12:59:56.950Z,57.28
2017-10-11T13:00:46.812Z,57.37
2017-10-11T13:02:39.392Z,59.20
2017-10-11T13:03:39.451Z,59.17
2017-10-11T13:05:33.673Z,59.85
2017-10-11T13:06:33.330Z,60.81
2017-10-11T13:08:32.225Z,61.58
2017-10-11T13:09:32.574Z,61.36
2017-10-11T13:11:25.644Z,60.33
2017-10-11T13:12:25.680Z,60.04
2017-10-11T13:14:20.078Z,59.08
2017-10-11T13:15:20.060Z,61.19
2017-10-11T13:17:13.496Z,59.78
2017-10-11T13:18:13.522Z,59.37
2017-10-11T13:20:07.516Z,58.40
2017-10-11T13:21:06.964Z,58.02
2017-10-11T13:23:01.697Z,59.34
2017-10-11T13:24:02.448Z,59.53
2017-10-11T13:25:55.482Z,60.59
2017-10-11T13:26:55.692Z,59.89
2017-10-11T13:28:48.716Z,62.48
2017-10-11T13:29:50.667Z,60.75
2017-10-11T13:31:43.235Z,60.56
2017-10-11T13:32:43.968Z,60.46
2017-10-11T13:34:37.690Z,59.79
2017-10-11T13:35:37.890Z,62.48
2017-10-11T13:37:44.035Z,61.23
2017-10-11T13:38:52.463Z,62.10
2017-10-11T13:40:38.318Z,63.06
2017-10-11T13:41:38.070Z,62.68
2017-10-11T13:43:46.231Z,61.36
2017-10-11T13:46:19.154Z,60.85
2017-10-11T13:47:10.128Z,60.88
2017-10-11T13:49:04.970Z,61.26
2017-10-11T13:51:17.516Z,60.97
2017-10-11T13:52:17.742Z,61.65
2017-10-11T13:54:11.992Z,61.26
2017-10-11T13:55:21.964Z,59.69
2017-10-11T13:57:05.391Z,60.94
2017-10-11T13:58:05.529Z,62.96
2017-10-11T14:00:08.791Z,62.96
2017-10-11T14:01:01.040Z,62.96
2017-10-11T14:02:53.518Z,64.22
2017-10-11T14:03:53.624Z,63.64
2017-10-11T14:05:55.940Z,61.33
2017-10-11T14:06:47.046Z,61.33
2017-10-11T14:08:41.341Z,61.33
2017-10-11T14:09:49.212Z,61.04
2017-10-11T14:11:35.019Z,62.29
2017-10-11T14:12:35.685Z,64.02
2017-10-11T14:14:37.656Z,61.23
2017-10-11T14:15:29.577Z,62.77
2017-10-11T14:17:23.241Z,66.81
2017-10-11T14:18:23.227Z,65.62
2017-10-11T14:20:17.764Z,63.89
2017-10-11T14:21:17.799Z,64.18
2017-10-11T14:23:12.391Z,64.28
2017-10-11T14:24:12.193Z,62.64
2017-10-11T14:26:06.812Z,63.12
2017-10-11T14:27:06.658Z,63.41
2017-10-11T14:29:00.133Z,62.16
2017-10-11T14:30:00.034Z,62.93
2017-10-11T14:31:54.555Z,63.02
2017-10-11T14:32:54.537Z,62.84
2017-10-11T14:34:47.980Z,62.07
2017-10-11T14:35:47.946Z,63.22
2017-10-11T14:37:42.443Z,62.26
2017-10-11T14:38:42.290Z,62.93
2017-10-11T14:40:35.733Z,66.58
2017-10-11T14:41:43.525Z,66.00
2017-10-11T14:43:29.137Z,65.23
2017-10-11T14:44:29.177Z,63.02
2017-10-11T14:46:22.535Z,63.99
2017-10-11T14:47:22.573Z,62.90
2017-10-11T14:49:16.995Z,62.52
2017-10-11T14:50:16.966Z,61.27
2017-10-11T14:52:11.399Z,61.17
2017-10-11T14:53:11.416Z,61.17
2017-10-11T14:55:04.842Z,62.23
2017-10-11T14:56:04.829Z,62.32
2017-10-11T14:57:59.360Z,62.81
2017-10-11T14:58:59.248Z,62.42
2017-10-11T15:00:52.674Z,62.04
2017-10-11T15:01:52.695Z,62.42
2017-10-11T15:03:47.028Z,62.42
2017-10-11T15:04:47.056Z,62.23
2017-10-11T15:06:40.459Z,64.34
2017-10-11T15:07:40.466Z,64.53
2017-10-11T15:09:33.870Z,63.45
2017-10-11T15:10:33.931Z,63.35
2017-10-11T15:12:27.371Z,64.02
2017-10-11T15:13:27.356Z,63.73
2017-10-11T15:15:20.704Z,63.45
2017-10-11T15:16:20.714Z,62.87
2017-10-11T15:18:15.107Z,62.77
2017-10-11T15:19:15.101Z,63.06
2017-10-11T15:21:09.531Z,64.79
2017-10-11T15:22:09.518Z,63.92
2017-10-11T15:24:04.074Z,63.83
2017-10-11T15:25:03.922Z,63.54
2017-10-11T15:26:58.506Z,64.22
2017-10-11T15:27:57.412Z,64.69
2017-10-11T15:29:51.336Z,64.69
2017-10-11T15:30:50.834Z,66.71
2017-10-11T15:32:44.259Z,66.52
2017-10-11T15:33:44.931Z,68.05
2017-10-11T15:35:37.752Z,65.81
2017-10-11T15:36:37.682Z,65.43
2017-10-11T15:38:31.073Z,66.19
2017-10-11T15:39:31.693Z,65.05
2017-10-11T15:41:25.082Z,66.39
2017-10-11T15:42:25.667Z,65.14
2017-10-11T15:44:18.513Z,65.43
2017-10-11T15:45:18.481Z,65.43
2017-10-11T15:47:15.129Z,64.76
2017-10-11T15:48:12.949Z,65.23
2017-10-11T15:50:08.204Z,65.14
2017-10-11T15:51:08.384Z,65.23
2017-10-11T15:53:07.561Z,67.35
2017-10-11T15:54:01.926Z,67.25
2017-10-11T15:55:56.077Z,67.16
2017-10-11T15:56:55.828Z,69.17
2017-10-11T15:58:49.695Z,68.08
2017-10-11T15:59:50.027Z,69.33
2017-10-11T16:01:42.719Z,66.93
2017-10-11T16:02:42.749Z,67.60
2017-10-11T16:04:36.150Z,67.41
2017-10-11T16:05:36.179Z,67.32
2017-10-11T16:07:29.566Z,67.79
2017-10-11T16:08:29.580Z,67.79
2017-10-11T16:10:23.773Z,68.08
2017-10-11T16:11:23.351Z,67.60
2017-10-11T16:13:17.377Z,69.33
2017-10-11T16:14:17.372Z,72.20
2017-10-11T16:16:10.784Z,70.35
2017-10-11T16:17:10.787Z,73.80
2017-10-11T16:19:04.213Z,73.80
2017-10-11T16:20:04.262Z,74.95
2017-10-11T16:21:58.604Z,76.25
2017-10-11T16:22:58.647Z,76.06
2017-10-11T16:24:53.076Z,78.61
2017-10-11T16:25:53.089Z,78.70
2017-10-11T16:27:47.500Z,79.75
2017-10-11T16:28:47.521Z,80.24
2017-10-11T16:30:40.944Z,81.25
2017-10-11T16:31:40.879Z,81.92
2017-10-11T16:33:34.327Z,82.17
2017-10-11T16:34:34.339Z,81.97
2017-10-11T16:36:27.712Z,83.03
2017-10-11T16:37:27.765Z,83.31
2017-10-11T16:39:21.183Z,83.40
2017-10-11T16:40:21.243Z,82.17
2017-10-11T16:42:14.661Z,82.74
2017-10-11T16:43:15.159Z,83.37
2017-10-11T16:45:09.485Z,84.70
2017-10-11T16:46:08.857Z,83.65
2017-10-11T16:48:03.297Z,84.32
2017-10-11T16:49:03.290Z,84.52
2017-10-11T16:50:56.561Z,84.52
2017-10-11T16:51:56.512Z,84.32
2017-10-11T16:53:49.948Z,84.61
2017-10-11T16:54:50.422Z,84.61
2017-10-11T16:56:43.593Z,85.57
2017-10-11T16:57:44.017Z,85.33
2017-10-11T16:59:49.946Z,85.62
2017-10-11T17:00:52.790Z,86.00
2017-10-11T17:02:43.936Z,86.57
2017-10-11T17:03:45.231Z,86.19
2017-10-11T17:05:36.514Z,86.91
2017-10-11T17:06:36.722Z,87.72
2017-10-11T17:08:29.912Z,87.29
2017-10-11T17:09:30.039Z,88.15
2017-10-11T17:11:23.529Z,88.25
2017-10-11T17:12:23.372Z,88.63
2017-10-11T17:14:16.789Z,89.01
2017-10-11T17:15:16.759Z,88.82
2017-10-11T17:17:10.154Z,88.44
2017-10-11T17:18:10.248Z,88.97
2017-10-11T17:20:04.893Z,88.63
2017-10-11T17:21:04.470Z,89.11
2017-10-11T17:22:59.632Z,89.11
2017-10-11T17:23:58.846Z,89.54
2017-10-11T17:25:52.225Z,89.73
2017-10-11T17:26:52.266Z,89.73
2017-10-11T17:28:45.674Z,89.73
2017-10-11T17:29:45.666Z,89.54
2017-10-11T17:31:39.049Z,89.45
2017-10-11T17:32:39.064Z,89.54
2017-10-11T17:34:33.509Z,89.02
2017-10-11T17:35:33.473Z,89.40
2017-10-11T17:37:26.887Z,89.78
2017-10-11T17:38:26.888Z,89.78
2017-10-11T17:40:20.281Z,89.97
2017-10-11T17:41:20.288Z,89.59
2017-10-11T17:43:13.717Z,89.97
2017-10-11T17:44:13.706Z,90.07
2017-10-11T17:46:07.084Z,89.78
2017-10-11T17:47:07.080Z,90.17
2017-10-11T17:49:00.515Z,90.73
2017-10-11T17:50:00.518Z,90.36
2017-10-11T17:51:53.875Z,90.45
2017-10-11T17:52:53.877Z,90.64
2017-10-11T17:54:47.294Z,90.26
2017-10-11T17:55:47.319Z,90.36
2017-10-11T17:57:40.720Z,90.17
2017-10-11T17:58:40.721Z,90.83
2017-10-11T18:00:34.151Z,90.36
2017-10-11T18:01:34.178Z,90.73
2017-10-11T18:03:28.580Z,89.59
2017-10-11T18:04:28.613Z,90.31
2017-10-11T18:06:21.943Z,90.07
2017-10-11T18:07:21.968Z,90.59
2017-10-11T18:09:15.309Z,90.50
2017-10-11T18:10:15.339Z,90.59
2017-10-11T18:12:08.794Z,90.69
2017-10-11T18:13:08.773Z,91.07
2017-10-11T18:15:02.187Z,91.07
2017-10-11T18:16:02.185Z,90.98
2017-10-11T18:17:55.628Z,91.07
2017-10-11T18:18:55.555Z,91.17
2017-10-11T18:20:49.000Z,90.50
2017-10-11T18:21:49.016Z,90.98
2017-10-11T18:23:43.393Z,90.36
2017-10-11T18:24:43.437Z,90.84
2017-10-11T18:26:37.851Z,91.13
2017-10-11T18:27:37.790Z,90.84
2017-10-11T18:29:32.289Z,91.13
2017-10-11T18:30:32.419Z,90.08
2017-10-11T18:32:25.675Z,91.41
2017-10-11T18:33:25.680Z,91.41
2017-10-11T18:35:19.068Z,91.22
2017-10-11T18:36:19.038Z,91.31
2017-10-11T18:38:12.430Z,91.31
2017-10-11T18:39:12.481Z,91.31
2017-10-11T18:41:06.833Z,90.84
2017-10-11T18:42:06.856Z,91.60
2017-10-11T18:44:00.317Z,91.88
2017-10-11T18:45:00.325Z,91.69
2017-10-11T18:46:54.828Z,92.17
2017-10-11T18:47:54.653Z,92.46
2017-10-11T18:49:48.089Z,92.36